Language: 


Des rapports , des résumés tant et plus, au choix de chacun....


Données Historiques de Météogheer
Journalier Rapport pour Janvier 2, 2017 Unitée:  Les deux    Impériale   Métrique
Suivant Jour »
Journalier Hebdomadaire Mensuel Annuel Sur mesure
  Max: Min: Moyenne:
Température: 47.8 °F /  8.8 °C 32.9 °F /  0.5 °C 37 °F /  2.8 °C
Point de rosée: 44.2 °F /  6.8 °C 31.5 °F /  -0.3 °C 35.6 °F /  2 °C
Humidité: 98% 83% 95%
Vent: 4.9mph /  7.9km/h - 0.8mph /  1.3km/h
Rafales: 11.9mph /  19.1km/h - -
Vent- - WSW
Pression: 30.3 in /  1027.0 hPa 30.1 in /  1018.2 hPa -
Pluie: 0 in /  0.0 mm    
Historical Graphs
 
 
Données tabulaires pour Janvier 2, 2017
Heure Température Point de rosée Pression Vent Vent Rafales Humidité Pluie Taux (Horaire) Conditions
00:09 34 °F /  1.1 °C 33.4 °F /  0.8 °C 30.1in /  1018.8hPa SW 3.6mph /  5.8km/h 6.5mph /  10.5km/h 98% 0in /  0.0mm
00:19 34 °F /  1.1 °C 33.4 °F /  0.8 °C 30.1in /  1018.2hPa SW 4.9mph /  7.9km/h 6.3mph /  10.1km/h 98% 0in /  0.0mm
00:29 34 °F /  1.1 °C 33.4 °F /  0.8 °C 30.1in /  1018.2hPa SSW 3.1mph /  5.0km/h 6.7mph /  10.8km/h 98% 0in /  0.0mm
00:39 34 °F /  1.1 °C 33.4 °F /  0.8 °C 30.1in /  1018.8hPa Calm   5.4mph /  8.7km/h 98% 0in /  0.0mm
00:49 34 °F /  1.1 °C 33.4 °F /  0.8 °C 30.1in /  1018.8hPa Calm   3.6mph /  5.8km/h 98% 0in /  0.0mm
00:59 34.2 °F /  1.2 °C 33.6 °F /  0.9 °C 30.1in /  1018.8hPa Calm   2.9mph /  4.7km/h 98% 0in /  0.0mm
01:09 34 °F /  1.1 °C 33.4 °F /  0.8 °C 30.1in /  1018.8hPa South 2mph /  3.2km/h 4mph /  6.4km/h 98% 0in /  0.0mm
01:19 34 °F /  1.1 °C 33.4 °F /  0.8 °C 30.1in /  1018.8hPa South 3.1mph /  5.0km/h 4mph /  6.4km/h 98% 0in /  0.0mm
01:29 34.2 °F /  1.2 °C 33.6 °F /  0.9 °C 30.1in /  1018.8hPa Calm   3.8mph /  6.1km/h 98% 0in /  0.0mm
01:39 34.2 °F /  1.2 °C 33.6 °F /  0.9 °C 30.1in /  1018.8hPa Calm     98% 0in /  0.0mm
01:49 34.2 °F /  1.2 °C 33.6 °F /  0.9 °C 30.1in /  1018.8hPa Calm     98% 0in /  0.0mm
01:59 34.2 °F /  1.2 °C 33.6 °F /  0.9 °C 30.1in /  1018.8hPa Calm     98% 0in /  0.0mm
02:09 34.2 °F /  1.2 °C 33.6 °F /  0.9 °C 30.1in /  1019.9hPa Calm     98% 0in /  0.0mm
02:19 34.2 °F /  1.2 °C 33.6 °F /  0.9 °C 30.1in /  1019.9hPa Calm     98% 0in /  0.0mm
02:29 34.2 °F /  1.2 °C 33.6 °F /  0.9 °C 30.1in /  1019.9hPa Calm     98% 0.01in /  0.3mm
02:39 34.2 °F /  1.2 °C 33.6 °F /  0.9 °C 30.1in /  1019.9hPa Calm   2mph /  3.2km/h 98% 0.01in /  0.3mm
02:49 34.2 °F /  1.2 °C 33.6 °F /  0.9 °C 30.1in /  1019.9hPa Calm     98% 0.01in /  0.3mm
02:59 34.2 °F /  1.2 °C 33.6 °F /  0.9 °C 30.1in /  1019.9hPa Calm     98% 0.01in /  0.3mm
03:09 34.2 °F /  1.2 °C 33.6 °F /  0.9 °C 30.2in /  1020.9hPa Calm   1.1mph /  1.8km/h 98% 0.01in /  0.3mm
03:19 34 °F /  1.1 °C 33.4 °F /  0.8 °C 30.2in /  1020.9hPa Calm     98% 0.01in /  0.3mm
03:29 34 °F /  1.1 °C 33.4 °F /  0.8 °C 30.2in /  1020.9hPa Calm     98% 0in /  0.0mm
03:39 34 °F /  1.1 °C 33.4 °F /  0.8 °C 30.2in /  1020.9hPa Calm     98% 0in /  0.0mm
03:49 34 °F /  1.1 °C 33.4 °F /  0.8 °C 30.2in /  1020.9hPa Calm     98% 0in /  0.0mm
03:59 34 °F /  1.1 °C 33.4 °F /  0.8 °C 30.2in /  1020.9hPa Calm     98% 0in /  0.0mm
04:09 34 °F /  1.1 °C 33.4 °F /  0.8 °C 30.2in /  1020.9hPa Calm     98% 0in /  0.0mm
04:19 34 °F /  1.1 °C 33.4 °F /  0.8 °C 30.1in /  1019.9hPa Calm     98% 0in /  0.0mm
04:29 34 °F /  1.1 °C 33.4 °F /  0.8 °C 30.1in /  1019.9hPa Calm     98% 0in /  0.0mm
04:39 34 °F /  1.1 °C 33.4 °F /  0.8 °C 30.2in /  1020.9hPa Calm     98% 0in /  0.0mm
04:49 34 °F /  1.1 °C 33.4 °F /  0.8 °C 30.2in /  1020.9hPa Calm     98% 0in /  0.0mm
04:59 34 °F /  1.1 °C 33.4 °F /  0.8 °C 30.2in /  1020.9hPa Calm   2.5mph /  4.0km/h 98% 0in /  0.0mm
05:09 34 °F /  1.1 °C 33.4 °F /  0.8 °C 30.2in /  1020.9hPa Calm     98% 0.01in /  0.3mm
05:19 34.2 °F /  1.2 °C 33.6 °F /  0.9 °C 30.2in /  1020.9hPa Calm     98% 0.01in /  0.3mm
05:29 34.2 °F /  1.2 °C 33.6 °F /  0.9 °C 30.2in /  1020.9hPa Calm     98% 0.01in /  0.3mm
05:39 34 °F /  1.1 °C 33.4 °F /  0.8 °C 30.2in /  1020.9hPa Calm     98% 0.01in /  0.3mm
05:49 34 °F /  1.1 °C 33.4 °F /  0.8 °C 30.2in /  1020.9hPa Calm     98% 0.01in /  0.3mm
05:59 34 °F /  1.1 °C 33.4 °F /  0.8 °C 30.2in /  1020.9hPa Calm     98% 0.01in /  0.3mm
06:09 34 °F /  1.1 °C 33.4 °F /  0.8 °C 30.2in /  1021.9hPa Calm     98% 0in /  0.0mm
06:19 34.2 °F /  1.2 °C 33.6 °F /  0.9 °C 30.2in /  1021.9hPa Calm     98% 0in /  0.0mm
06:29 34.3 °F /  1.3 °C 33.8 °F /  1.0 °C 30.2in /  1021.9hPa Calm     98% 0in /  0.0mm
06:39 34.3 °F /  1.3 °C 33.8 °F /  1.0 °C 30.2in /  1020.9hPa Calm     98% 0in /  0.0mm
06:49 34.3 °F /  1.3 °C 33.8 °F /  1.0 °C 30.2in /  1021.9hPa Calm     98% 0in /  0.0mm
06:59 34.3 °F /  1.3 °C 33.8 °F /  1.0 °C 30.2in /  1021.9hPa Calm     98% 0in /  0.0mm
07:09 34.2 °F /  1.2 °C 33.6 °F /  0.9 °C 30.2in /  1021.9hPa Calm   2.2mph /  3.5km/h 98% 0in /  0.0mm
07:19 33.8 °F /  1.0 °C 33.3 °F /  0.7 °C 30.2in /  1021.9hPa Calm     98% 0in /  0.0mm
07:29 33.8 °F /  1.0 °C 33.3 °F /  0.7 °C 30.2in /  1021.9hPa Calm   2.7mph /  4.3km/h 98% 0in /  0.0mm
07:39 34.2 °F /  1.2 °C 33.6 °F /  0.9 °C 30.2in /  1021.9hPa NE 2.2mph /  3.5km/h 4mph /  6.4km/h 98% 0in /  0.0mm
07:49 34.3 °F /  1.3 °C 33.8 °F /  1.0 °C 30.2in /  1021.9hPa Calm     98% 0.01in /  0.3mm
07:59 34.3 °F /  1.3 °C 33.8 °F /  1.0 °C 30.2in /  1021.9hPa Calm     98% 0.01in /  0.3mm
08:09 34.3 °F /  1.3 °C 33.8 °F /  1.0 °C 30.2in /  1021.9hPa Calm     98% 0.01in /  0.3mm
08:19 34.5 °F /  1.4 °C 34 °F /  1.1 °C 30.2in /  1021.9hPa Calm     98% 0.01in /  0.3mm
08:29 34.5 °F /  1.4 °C 34.2 °F /  1.2 °C 30.2in /  1021.9hPa Calm     98% 0.01in /  0.3mm
08:39 34.3 °F /  1.3 °C 33.8 °F /  1.0 °C 30.2in /  1022.9hPa Calm     98% 0.01in /  0.3mm
08:49 34 °F /  1.1 °C 33.4 °F /  0.8 °C 30.2in /  1022.9hPa Calm     98% 0in /  0.0mm
08:59 34.3 °F /  1.3 °C 33.8 °F /  1.0 °C 30.2in /  1022.9hPa Calm     98% 0in /  0.0mm
09:09 34.3 °F /  1.3 °C 33.8 °F /  1.0 °C 30.2in /  1021.9hPa Calm   3.4mph /  5.5km/h 98% 0in /  0.0mm
09:19 35.1 °F /  1.7 °C 34.5 °F /  1.4 °C 30.2in /  1022.9hPa Calm   2.9mph /  4.7km/h 98% 0in /  0.0mm
09:29 35.1 °F /  1.7 °C 34.5 °F /  1.4 °C 30.2in /  1022.9hPa Calm     98% 0in /  0.0mm
09:39 34.5 °F /  1.4 °C 34 °F /  1.1 °C 30.2in /  1022.9hPa Calm     98% 0in /  0.0mm
09:49 34.5 °F /  1.4 °C 34.2 °F /  1.2 °C 30.2in /  1023.9hPa Calm   2.5mph /  4.0km/h 98% 0in /  0.0mm
09:59 35.4 °F /  1.9 °C 34.9 °F /  1.6 °C 30.2in /  1023.9hPa NW 2.5mph /  4.0km/h 2.9mph /  4.7km/h 98% 0in /  0.0mm
10:09 36.1 °F /  2.3 °C 35.8 °F /  2.1 °C 30.3in /  1024.9hPa North 2.5mph /  4.0km/h 3.6mph /  5.8km/h 98% 0in /  0.0mm
10:19 36.9 °F /  2.7 °C 36.3 °F /  2.4 °C 30.2in /  1023.9hPa NNW 2mph /  3.2km/h 4mph /  6.4km/h 98% 0in /  0.0mm
10:29 37.6 °F /  3.1 °C 37 °F /  2.8 °C 30.2in /  1023.9hPa Calm   3.6mph /  5.8km/h 98% 0in /  0.0mm
10:39 38.5 °F /  3.6 °C 37.9 °F /  3.3 °C 30.3in /  1024.9hPa Calm   3.6mph /  5.8km/h 98% 0in /  0.0mm
10:49 38.7 °F /  3.7 °C 38.1 °F /  3.4 °C 30.2in /  1023.9hPa North 2mph /  3.2km/h 3.8mph /  6.1km/h 98% 0in /  0.0mm
10:59 38.8 °F /  3.8 °C 38.5 °F /  3.6 °C 30.2in /  1023.9hPa Calm   3.6mph /  5.8km/h 98% 0in /  0.0mm
11:09 39.7 °F /  4.3 °C 39.2 °F /  4.0 °C 30.3in /  1024.9hPa NNW 2.5mph /  4.0km/h 2.5mph /  4.0km/h 98% 0in /  0.0mm
11:19 40.3 °F /  4.6 °C 39.7 °F /  4.3 °C 30.3in /  1024.9hPa Calm   4.3mph /  6.9km/h 98% 0in /  0.0mm
11:29 40.8 °F /  4.9 °C 40.3 °F /  4.6 °C 30.3in /  1024.9hPa NNE 2.2mph /  3.5km/h 5.4mph /  8.7km/h 98% 0in /  0.0mm
11:39 41.5 °F /  5.3 °C 41 °F /  5.0 °C 30.3in /  1024.9hPa NNE 2mph /  3.2km/h 3.6mph /  5.8km/h 98% 0in /  0.0mm
11:49 42.3 °F /  5.7 °C 41.7 °F /  5.4 °C 30.2in /  1023.9hPa WNW 2mph /  3.2km/h 3.8mph /  6.1km/h 98% 0in /  0.0mm
11:59 43.2 °F /  6.2 °C 42.6 °F /  5.9 °C 30.2in /  1023.9hPa Calm   3.8mph /  6.1km/h 98% 0in /  0.0mm
12:09 43.5 °F /  6.4 °C 43.2 °F /  6.2 °C 30.3in /  1024.9hPa North 4mph /  6.4km/h 4.3mph /  6.9km/h 98% 0in /  0.0mm
12:19 44.1 °F /  6.7 °C 43.2 °F /  6.2 °C 30.3in /  1024.9hPa Calm   5.8mph /  9.3km/h 97% 0in /  0.0mm
12:49 44.2 °F /  6.8 °C 42.8 °F /  6.0 °C 30.3in /  1024.9hPa North 3.6mph /  5.8km/h 6mph /  9.7km/h 95% 0in /  0.0mm
12:59 44.8 °F /  7.1 °C 42.8 °F /  6.0 °C 30.3in /  1024.9hPa North 2.7mph /  4.3km/h 5.6mph /  9.0km/h 93% 0in /  0.0mm
13:09 45.1 °F /  7.3 °C 43.3 °F /  6.3 °C 30.2in /  1023.9hPa NNW 2.7mph /  4.3km/h 5.4mph /  8.7km/h 93% 0in /  0.0mm
13:19 45.7 °F /  7.6 °C 43.7 °F /  6.5 °C 30.3in /  1024.9hPa NNW 1.6mph /  2.6km/h 5.8mph /  9.3km/h 93% 0in /  0.0mm
13:29 45.9 °F /  7.7 °C 43.5 °F /  6.4 °C 30.3in /  1024.9hPa NNE 3.4mph /  5.5km/h 6.3mph /  10.1km/h 92% 0in /  0.0mm
13:39 46.2 °F /  7.9 °C 44.1 °F /  6.7 °C 30.3in /  1024.9hPa NW 2.7mph /  4.3km/h 4mph /  6.4km/h 92% 0in /  0.0mm
13:49 46.2 °F /  7.9 °C 43.9 °F /  6.6 °C 30.3in /  1024.9hPa Calm   4.5mph /  7.2km/h 91% 0in /  0.0mm
13:59 46.2 °F /  7.9 °C 43.9 °F /  6.6 °C 30.3in /  1024.9hPa NNW 2mph /  3.2km/h 4mph /  6.4km/h 91% 0in /  0.0mm
14:09 46.6 °F /  8.1 °C 43.7 °F /  6.5 °C 30.3in /  1024.9hPa North 2mph /  3.2km/h 5.4mph /  8.7km/h 90% 0.01in /  0.3mm
14:19 46.2 °F /  7.9 °C 43.5 °F /  6.4 °C 30.3in /  1024.9hPa NW 2.5mph /  4.0km/h 6.5mph /  10.5km/h 90% 0.01in /  0.3mm
14:29 46.8 °F /  8.2 °C 43.5 °F /  6.4 °C 30.3in /  1024.9hPa WNW 2.9mph /  4.7km/h 4.7mph /  7.6km/h 88% 0.01in /  0.3mm
14:39 47.8 °F /  8.8 °C 44.2 °F /  6.8 °C 30.3in /  1024.9hPa Calm   4.3mph /  6.9km/h 87% 0.01in /  0.3mm
14:49 44.4 °F /  6.9 °C 39.7 °F /  4.3 °C 30.3in /  1024.9hPa NNE 3.4mph /  5.5km/h 11.9mph /  19.1km/h 83% 0.01in /  0.3mm
14:59 42.8 °F /  6.0 °C 38.7 °F /  3.7 °C 30.3in /  1024.9hPa Calm   5.8mph /  9.3km/h 85% 0.01in /  0.3mm
15:09 42.8 °F /  6.0 °C 39.2 °F /  4.0 °C 30.3in /  1024.9hPa Calm   2.2mph /  3.5km/h 87% 0in /  0.0mm
15:19 43.9 °F /  6.6 °C 40.8 °F /  4.9 °C 30.3in /  1024.9hPa Calm   3.1mph /  5.0km/h 89% 0in /  0.0mm
15:29 44.2 °F /  6.8 °C 40.6 °F /  4.8 °C 30.3in /  1024.9hPa North 2.2mph /  3.5km/h 4.9mph /  7.9km/h 87% 0in /  0.0mm
15:39 44.2 °F /  6.8 °C 40.6 °F /  4.8 °C 30.3in /  1024.9hPa NNW 0.9mph /  1.4km/h 3.8mph /  6.1km/h 87% 0in /  0.0mm
15:49 44.4 °F /  6.9 °C 40.8 °F /  4.9 °C 30.2in /  1023.9hPa WNW 2.5mph /  4.0km/h 3.4mph /  5.5km/h 87% 0in /  0.0mm
15:59 44.4 °F /  6.9 °C 40.3 °F /  4.6 °C 30.2in /  1023.9hPa Calm   3.1mph /  5.0km/h 85% 0in /  0.0mm
16:09 44.2 °F /  6.8 °C 39.7 °F /  4.3 °C 30.3in /  1024.9hPa NW 2mph /  3.2km/h 4.3mph /  6.9km/h 84% 0in /  0.0mm
16:19 44.2 °F /  6.8 °C 39.7 °F /  4.3 °C 30.3in /  1024.9hPa NNE 3.6mph /  5.8km/h 6.3mph /  10.1km/h 84% 0in /  0.0mm
16:29 42.1 °F /  5.6 °C 37.6 °F /  3.1 °C 30.3in /  1024.9hPa North 1.3mph /  2.1km/h 3.8mph /  6.1km/h 84% 0in /  0.0mm
16:39 42.1 °F /  5.6 °C 37.6 °F /  3.1 °C 30.3in /  1024.9hPa Calm   2.2mph /  3.5km/h 84% 0in /  0.0mm
16:49 40.3 °F /  4.6 °C 36.1 °F /  2.3 °C 30.3in /  1024.9hPa Calm   2.5mph /  4.0km/h 85% 0in /  0.0mm
16:59 39.7 °F /  4.3 °C 35.6 °F /  2.0 °C 30.3in /  1024.9hPa Calm     85% 0in /  0.0mm
17:09 38.5 °F /  3.6 °C 34.5 °F /  1.4 °C 30.3in /  1026.0hPa Calm   1.1mph /  1.8km/h 86% 0in /  0.0mm
17:19 37.9 °F /  3.3 °C 34.5 °F /  1.4 °C 30.3in /  1026.0hPa Calm   2.2mph /  3.5km/h 87% 0in /  0.0mm
17:29 37.6 °F /  3.1 °C 34.3 °F /  1.3 °C 30.3in /  1026.0hPa NNE 3.6mph /  5.8km/h 3.6mph /  5.8km/h 88% 0in /  0.0mm
17:39 37.6 °F /  3.1 °C 35.1 °F /  1.7 °C 30.3in /  1026.0hPa North 0.9mph /  1.4km/h 4.3mph /  6.9km/h 90% 0in /  0.0mm
17:49 37.6 °F /  3.1 °C 35.2 °F /  1.8 °C 30.3in /  1026.0hPa North 1.1mph /  1.8km/h 3.6mph /  5.8km/h 91% 0in /  0.0mm
17:59 37.6 °F /  3.1 °C 35.2 °F /  1.8 °C 30.3in /  1026.0hPa Calm   3.1mph /  5.0km/h 91% 0in /  0.0mm
18:09 37.6 °F /  3.1 °C 35.1 °F /  1.7 °C 30.3in /  1026.0hPa Calm   3.4mph /  5.5km/h 91% 0in /  0.0mm
18:19 37.6 °F /  3.1 °C 35.1 °F /  1.7 °C 30.3in /  1026.0hPa Calm   3.1mph /  5.0km/h 91% 0in /  0.0mm
18:29 37 °F /  2.8 °C 34.7 °F /  1.5 °C 30.3in /  1026.0hPa NW 1.1mph /  1.8km/h 3.8mph /  6.1km/h 91% 0in /  0.0mm
18:39 36.9 °F /  2.7 °C 34.5 °F /  1.4 °C 30.3in /  1027.0hPa Calm   4mph /  6.4km/h 91% 0in /  0.0mm
18:49 36.7 °F /  2.6 °C 34.2 °F /  1.2 °C 30.3in /  1027.0hPa Calm   3.6mph /  5.8km/h 91% 0in /  0.0mm
18:59 36.7 °F /  2.6 °C 34.2 °F /  1.2 °C 30.3in /  1027.0hPa NNW 2.7mph /  4.3km/h 2.9mph /  4.7km/h 91% 0in /  0.0mm
19:09 36.7 °F /  2.6 °C 34.2 °F /  1.2 °C 30.3in /  1027.0hPa NNE 3.1mph /  5.0km/h 4.9mph /  7.9km/h 91% 0in /  0.0mm
19:19 36.7 °F /  2.6 °C 34.2 °F /  1.2 °C 30.3in /  1027.0hPa Calm   4.3mph /  6.9km/h 91% 0in /  0.0mm
19:29 36.1 °F /  2.3 °C 34.2 °F /  1.2 °C 30.3in /  1027.0hPa West 1.6mph /  2.6km/h 2.5mph /  4.0km/h 92% 0in /  0.0mm
19:39 36.3 °F /  2.4 °C 34.5 °F /  1.4 °C 30.3in /  1027.0hPa Calm   2.7mph /  4.3km/h 93% 0in /  0.0mm
19:49 36.1 °F /  2.3 °C 34.3 °F /  1.3 °C 30.3in /  1027.0hPa Calm   3.6mph /  5.8km/h 93% 0in /  0.0mm
19:59 36.1 °F /  2.3 °C 34.2 °F /  1.2 °C 30.3in /  1027.0hPa WNW 1.6mph /  2.6km/h 3.4mph /  5.5km/h 93% 0in /  0.0mm
20:09 35.4 °F /  1.9 °C 33.3 °F /  0.7 °C 30.3in /  1027.0hPa Calm   2.2mph /  3.5km/h 92% 0in /  0.0mm
20:19 35.1 °F /  1.7 °C 33.3 °F /  0.7 °C 30.3in /  1027.0hPa West 2.5mph /  4.0km/h 3.4mph /  5.5km/h 93% 0in /  0.0mm
20:29 34.9 °F /  1.6 °C 33.1 °F /  0.6 °C 30.3in /  1027.0hPa Calm   3.4mph /  5.5km/h 93% 0in /  0.0mm
20:39 34.9 °F /  1.6 °C 33.3 °F /  0.7 °C 30.3in /  1027.0hPa Calm   3.4mph /  5.5km/h 94% 0in /  0.0mm
20:49 35.1 °F /  1.7 °C 33.6 °F /  0.9 °C 30.3in /  1027.0hPa Calm   3.6mph /  5.8km/h 95% 0in /  0.0mm
20:59 34.9 °F /  1.6 °C 33.4 °F /  0.8 °C 30.3in /  1027.0hPa West 1.1mph /  1.8km/h 2.9mph /  4.7km/h 95% 0in /  0.0mm
21:09 34.3 °F /  1.3 °C 32.7 °F /  0.4 °C 30.3in /  1027.0hPa Calm     94% 0in /  0.0mm
21:19 33.6 °F /  0.9 °C 32 °F /  0.0 °C 30.3in /  1027.0hPa Calm     94% 0in /  0.0mm
21:29 33.1 °F /  0.6 °C 31.5 °F /  -0.3 °C 30.3in /  1027.0hPa SW 1.6mph /  2.6km/h 2.2mph /  3.5km/h 94% 0in /  0.0mm
21:39 33.1 °F /  0.6 °C 31.5 °F /  -0.3 °C 30.3in /  1027.0hPa Calm   1.1mph /  1.8km/h 94% 0in /  0.0mm
21:49 33.1 °F /  0.6 °C 31.8 °F /  -0.1 °C 30.3in /  1027.0hPa Calm     95% 0in /  0.0mm
21:59 32.9 °F /  0.5 °C 31.8 °F /  -0.1 °C 30.3in /  1027.0hPa WSW 2.7mph /  4.3km/h 3.4mph /  5.5km/h 96% 0in /  0.0mm
22:09 33.1 °F /  0.6 °C 32 °F /  0.0 °C 30.3in /  1027.0hPa West 3.1mph /  5.0km/h 4.3mph /  6.9km/h 96% 0in /  0.0mm
22:19 33.4 °F /  0.8 °C 32.7 °F /  0.4 °C 30.3in /  1027.0hPa West 4.3mph /  6.9km/h 4.7mph /  7.6km/h 97% 0in /  0.0mm
22:29 33.8 °F /  1.0 °C 33.1 °F /  0.6 °C 30.3in /  1027.0hPa Calm   4.9mph /  7.9km/h 97% 0in /  0.0mm
22:39 34 °F /  1.1 °C 33.3 °F /  0.7 °C 30.3in /  1027.0hPa Calm     97% 0in /  0.0mm
22:49 34.3 °F /  1.3 °C 33.4 °F /  0.8 °C 30.3in /  1027.0hPa West 3.6mph /  5.8km/h 4mph /  6.4km/h 97% 0in /  0.0mm
22:59 34.5 °F /  1.4 °C 33.6 °F /  0.9 °C 30.3in /  1027.0hPa Calm   4mph /  6.4km/h 97% 0in /  0.0mm
23:09 34.3 °F /  1.3 °C 33.4 °F /  0.8 °C 30.3in /  1027.0hPa Calm   4mph /  6.4km/h 97% 0in /  0.0mm
23:19 34.3 °F /  1.3 °C 33.4 °F /  0.8 °C 30.3in /  1027.0hPa Calm     97% 0in /  0.0mm
23:29 34.2 °F /  1.2 °C 33.4 °F /  0.8 °C 30.3in /  1027.0hPa Calm   3.4mph /  5.5km/h 97% 0in /  0.0mm
23:39 34.2 °F /  1.2 °C 33.4 °F /  0.8 °C 30.3in /  1027.0hPa Calm   2.5mph /  4.0km/h 97% 0in /  0.0mm
23:49 34.5 °F /  1.4 °C 34.2 °F /  1.2 °C 30.3in /  1027.0hPa Calm   4.7mph /  7.6km/h 98% 0in /  0.0mm
23:59 33.8 °F /  1.0 °C 33.1 °F /  0.6 °C 30.3in /  1027.0hPa Calm     97% 0in /  0.0mm
Données Historique de Météo Turbie

Mise a jour : 20/05/2018 16:10:12
Généré par Cumulus 1.9.4 (1099)